createdAt,value
2019-05-03T00:02:59.424Z,84.47
2019-05-03T00:06:05.296Z,171.47
2019-05-03T00:09:09.253Z,48.50
2019-05-03T00:12:12.690Z,40.83
2019-05-03T00:15:22.788Z,45.73
2019-05-03T00:18:24.786Z,41.40
2019-05-03T00:21:26.684Z,46.03
2019-05-03T00:24:28.634Z,52.00
2019-05-03T00:27:32.261Z,52.83
2019-05-03T00:30:34.840Z,52.33
2019-05-03T00:33:37.789Z,55.63
2019-05-03T00:36:47.157Z,53.50
2019-05-03T00:39:53.678Z,56.63
2019-05-03T00:42:57.343Z,51.67
2019-05-03T00:45:59.288Z,51.47
2019-05-03T00:49:01.214Z,52.63
2019-05-03T00:52:04.430Z,48.77
2019-05-03T00:55:16.076Z,136.93
2019-05-03T00:58:11.752Z,68.37
2019-05-03T01:01:14.317Z,55.37
2019-05-03T01:04:16.292Z,52.67
2019-05-03T01:07:18.236Z,51.60
2019-05-03T01:10:22.418Z,58.13
2019-05-03T01:13:24.166Z,53.63
2019-05-03T01:16:26.075Z,57.13
2019-05-03T01:19:28.072Z,63.53
2019-05-03T01:22:31.994Z,82.67
2019-05-03T01:25:35.546Z,54.67
2019-05-03T01:28:38.885Z,56.57
2019-05-03T01:31:42.176Z,72.93
2019-05-03T01:34:44.194Z,53.43
2019-05-03T01:37:47.359Z,48.53
2019-05-03T01:40:49.439Z,52.93
2019-05-03T01:43:52.618Z,50.07
2019-05-03T01:46:56.620Z,50.83
2019-05-03T01:50:00.338Z,54.63
2019-05-03T01:53:04.597Z,50.60
2019-05-03T01:56:06.506Z,47.93
2019-05-03T01:59:08.549Z,58.27
2019-05-03T02:02:13.069Z,46.53
2019-05-03T02:05:33.430Z,51.27
2019-05-03T02:08:35.340Z,46.07
2019-05-03T02:11:37.348Z,49.63
2019-05-03T02:14:39.260Z,44.23
2019-05-03T02:17:42.667Z,45.03
2019-05-03T02:20:44.871Z,48.77
2019-05-03T02:23:46.832Z,42.17
2019-05-03T02:26:48.781Z,46.30
2019-05-03T02:29:52.429Z,41.60
2019-05-03T02:32:54.792Z,45.97
2019-05-03T02:35:56.747Z,44.73
2019-05-03T02:38:58.672Z,39.70
2019-05-03T02:42:07.915Z,41.33
2019-05-03T02:45:09.066Z,41.13
2019-05-03T02:48:18.628Z,44.43
2019-05-03T02:51:20.555Z,40.27
2019-05-03T02:54:22.491Z,50.30
2019-05-03T02:57:25.893Z,43.70
2019-05-03T03:00:47.063Z,41.57
2019-05-03T03:03:49.743Z,45.47
2019-05-03T03:06:55.461Z,44.90
2019-05-03T03:09:58.388Z,48.03
2019-05-03T03:13:05.751Z,52.07
2019-05-03T03:16:09.056Z,47.13
2019-05-03T03:19:15.873Z,49.50
2019-05-03T03:50:05.982Z,44.20
2019-05-03T03:53:10.060Z,41.13
2019-05-03T03:56:16.058Z,41.00
2019-05-03T03:59:18.406Z,40.50
2019-05-03T04:02:20.463Z,45.60
2019-05-03T04:05:25.188Z,39.87
2019-05-03T04:08:26.197Z,39.97
2019-05-03T04:11:28.220Z,37.13
2019-05-03T04:14:38.544Z,36.30
2019-05-03T04:17:59.706Z,40.90
2019-05-03T04:21:01.738Z,33.67
2019-05-03T04:24:06.024Z,40.77
2019-05-03T04:27:18.012Z,33.83
2019-05-03T04:30:11.641Z,36.23
2019-05-03T04:33:16.032Z,34.50
2019-05-03T04:36:17.640Z,32.70
2019-05-03T04:39:20.385Z,31.73
2019-05-03T04:42:25.357Z,32.33
2019-05-03T04:45:26.849Z,33.30
2019-05-03T04:48:28.910Z,37.63
2019-05-03T04:51:30.924Z,29.97
2019-05-03T04:54:41.351Z,31.67
2019-05-03T04:57:46.787Z,31.33
2019-05-03T05:00:48.522Z,31.37
2019-05-03T05:03:50.455Z,31.10
2019-05-03T05:06:52.447Z,36.30
2019-05-03T05:09:56.268Z,33.60
2019-05-03T05:12:58.600Z,28.73
2019-05-03T05:16:01.162Z,28.33
2019-05-03T05:19:07.919Z,24.83
2019-05-03T05:22:15.553Z,25.77
2019-05-03T05:25:19.847Z,20.27
2019-05-03T05:28:26.673Z,16.10
2019-05-03T05:31:28.604Z,10.57
2019-05-03T05:34:30.574Z,10.13
2019-05-03T05:37:32.582Z,10.20
2019-05-03T05:40:35.011Z,8.00
2019-05-03T05:43:37.624Z,4.83
2019-05-03T05:46:59.128Z,3.43
2019-05-03T05:50:04.872Z,3.70
2019-05-03T05:53:06.828Z,6.67
2019-05-03T05:56:25.741Z,4.97
2019-05-03T05:59:29.582Z,5.03
2019-05-03T06:02:31.786Z,6.03
2019-05-03T06:05:35.553Z,6.30
2019-05-03T06:08:39.670Z,4.77
2019-05-03T06:12:00.567Z,7.23
2019-05-03T06:15:06.471Z,4.83
2019-05-03T06:18:14.678Z,5.10
2019-05-03T06:21:21.630Z,4.20
2019-05-03T06:24:25.382Z,5.13
2019-05-03T06:27:29.280Z,6.73
2019-05-03T06:30:35.012Z,4.77
2019-05-03T06:33:36.929Z,6.10
2019-05-03T06:36:40.151Z,4.53
2019-05-03T06:39:42.071Z,4.77
2019-05-03T06:42:52.409Z,3.57
2019-05-03T06:45:50.483Z,4.13
2019-05-03T06:48:52.118Z,4.23
2019-05-03T06:51:54.737Z,6.03
2019-05-03T06:55:00.378Z,4.87
2019-05-03T06:58:00.648Z,5.47
2019-05-03T07:01:16.046Z,4.07
2019-05-03T07:04:36.298Z,9.23
2019-05-03T07:07:40.085Z,4.70
2019-05-03T07:10:44.482Z,4.07
2019-05-03T07:13:46.558Z,4.90
2019-05-03T07:16:48.475Z,5.33
2019-05-03T07:19:51.510Z,5.30
2019-05-03T07:22:55.768Z,5.47
2019-05-03T07:25:59.114Z,5.37
2019-05-03T07:29:01.089Z,3.87
2019-05-03T07:32:05.067Z,6.83
2019-05-03T07:35:07.171Z,4.23
2019-05-03T07:38:09.108Z,5.80
2019-05-03T07:41:11.017Z,4.50
2019-05-03T07:44:15.136Z,7.27
2019-05-03T07:47:17.216Z,5.60
2019-05-03T07:50:19.099Z,5.40
2019-05-03T07:53:21.091Z,7.30
2019-05-03T07:56:25.483Z,6.17
2019-05-03T07:59:28.825Z,5.33
2019-05-03T08:02:30.752Z,4.80
2019-05-03T08:05:32.640Z,6.07
2019-05-03T08:08:35.408Z,6.30
2019-05-03T08:11:37.792Z,9.97
2019-05-03T08:14:39.655Z,9.90
2019-05-03T08:17:41.674Z,9.73
2019-05-03T08:20:45.155Z,6.00
2019-05-03T08:23:47.460Z,7.70
2019-05-03T08:26:49.325Z,5.10
2019-05-03T08:29:51.282Z,5.17
2019-05-03T08:33:01.002Z,4.47
2019-05-03T08:36:04.840Z,3.10
2019-05-03T08:39:06.910Z,4.10
2019-05-03T08:42:10.674Z,3.53
2019-05-03T08:45:14.649Z,6.23
2019-05-03T08:48:17.471Z,6.00
2019-05-03T08:51:19.434Z,3.13
2019-05-03T08:54:21.356Z,6.33
2019-05-03T08:57:25.422Z,7.27
2019-05-03T09:00:28.984Z,4.63
2019-05-03T09:03:30.935Z,4.37
2019-05-03T09:06:32.799Z,4.63
2019-05-03T09:09:36.951Z,4.20
2019-05-03T09:12:57.288Z,3.47
2019-05-03T09:15:59.315Z,4.73
2019-05-03T09:19:01.258Z,6.93
2019-05-03T09:22:06.277Z,9.40
2019-05-03T09:25:08.388Z,9.03
2019-05-03T09:28:10.377Z,8.27
2019-05-03T09:31:12.432Z,5.43
2019-05-03T09:34:14.843Z,6.77
2019-05-03T09:37:17.052Z,7.40
2019-05-03T09:40:18.959Z,7.90
2019-05-03T09:43:21.026Z,8.63
2019-05-03T09:46:25.659Z,8.73
2019-05-03T09:49:26.925Z,7.17
2019-05-03T09:52:28.844Z,8.67
2019-05-03T09:55:32.598Z,6.57
2019-05-03T09:58:37.918Z,5.90
2019-05-03T10:01:38.555Z,8.57
2019-05-03T10:04:40.561Z,6.37
2019-05-03T10:07:42.513Z,6.10
2019-05-03T10:11:05.295Z,6.23
2019-05-03T10:14:08.549Z,5.67
2019-05-03T10:17:28.699Z,6.97
2019-05-03T10:20:30.698Z,8.07
2019-05-03T10:23:35.782Z,8.37
2019-05-03T10:26:38.125Z,8.03
2019-05-03T10:29:40.034Z,8.20
2019-05-03T10:32:52.874Z,10.03
2019-05-03T10:35:54.873Z,9.53
2019-05-03T10:38:56.975Z,6.30
2019-05-03T10:41:58.929Z,9.40
2019-05-03T10:45:00.843Z,10.57
2019-05-03T10:48:04.806Z,8.83
2019-05-03T10:51:06.756Z,6.87
2019-05-03T10:54:08.775Z,9.73
2019-05-03T10:57:15.926Z,7.50
2019-05-03T11:00:42.553Z,7.77
2019-05-03T11:03:23.923Z,6.60
2019-05-03T11:06:25.972Z,7.43
2019-05-03T11:09:27.954Z,6.07
2019-05-03T11:12:29.964Z,6.43
2019-05-03T11:15:31.891Z,5.70
2019-05-03T11:18:34.788Z,5.57
2019-05-03T11:21:36.695Z,5.13
2019-05-03T11:24:38.985Z,4.70
2019-05-03T11:27:44.615Z,7.73
2019-05-03T11:30:55.313Z,4.77
2019-05-03T11:33:50.762Z,5.07
2019-05-03T11:36:57.320Z,7.13
2019-05-03T11:39:59.270Z,5.93
2019-05-03T11:43:02.068Z,5.63
2019-05-03T11:46:04.052Z,9.37
2019-05-03T11:49:05.982Z,8.73
2019-05-03T11:52:07.869Z,5.93
2019-05-03T11:55:11.822Z,10.77
2019-05-03T11:58:18.069Z,6.50
2019-05-03T12:01:21.947Z,6.67
2019-05-03T12:04:24.953Z,10.00
2019-05-03T12:07:39.345Z,11.23
2019-05-03T12:10:51.608Z,6.40
2019-05-03T12:13:40.820Z,7.20
2019-05-03T12:19:50.974Z,7.90
2019-05-03T12:22:54.224Z,9.03
2019-05-03T12:25:57.804Z,6.33
2019-05-03T12:29:00.120Z,7.17
2019-05-03T12:32:02.121Z,6.53
2019-05-03T12:35:06.097Z,4.60
2019-05-03T12:38:08.211Z,8.47
2019-05-03T12:41:10.189Z,3.97
2019-05-03T12:44:12.209Z,5.87
2019-05-03T12:47:14.601Z,6.13
2019-05-03T12:50:18.183Z,9.17
2019-05-03T12:53:21.989Z,9.17
2019-05-03T12:56:32.378Z,7.03
2019-05-03T12:59:30.980Z,4.53
2019-05-03T13:02:34.763Z,7.30
2019-05-03T13:05:36.938Z,7.47
2019-05-03T13:08:40.478Z,5.93
2019-05-03T13:11:53.025Z,4.00
2019-05-03T13:14:48.976Z,4.63
2019-05-03T13:17:50.943Z,6.77
2019-05-03T13:20:52.875Z,4.53
2019-05-03T13:23:54.983Z,5.17
2019-05-03T13:26:57.135Z,5.80
2019-05-03T13:29:59.400Z,4.57
2019-05-03T13:33:01.321Z,3.73
2019-05-03T13:36:04.039Z,3.87
2019-05-03T13:39:13.357Z,6.40
2019-05-03T13:42:11.919Z,4.23
2019-05-03T13:45:13.888Z,10.27
2019-05-03T13:48:20.993Z,4.20
2019-05-03T13:51:19.708Z,2.57
2019-05-03T13:54:21.623Z,7.73
2019-05-03T13:57:24.585Z,4.87
2019-05-03T14:00:26.650Z,4.87
2019-05-03T14:03:28.718Z,4.53
2019-05-03T14:06:33.603Z,3.67
2019-05-03T14:09:34.900Z,5.53
2019-05-03T14:12:37.238Z,4.23
2019-05-03T14:15:39.231Z,5.23
2019-05-03T14:18:41.585Z,5.03
2019-05-03T14:21:45.565Z,5.03
2019-05-03T14:24:47.707Z,4.50
2019-05-03T14:27:59.668Z,3.67
2019-05-03T14:31:05.131Z,4.80
2019-05-03T14:34:10.908Z,4.57
2019-05-03T14:37:13.294Z,5.73
2019-05-03T14:40:15.236Z,13.83
2019-05-03T14:43:17.213Z,9.47
2019-05-03T14:46:30.033Z,4.67
2019-05-03T14:49:23.081Z,7.87
2019-05-03T14:52:25.268Z,8.07
2019-05-03T14:55:42.347Z,9.10
2019-05-03T14:58:52.294Z,4.70
2019-05-03T15:01:56.097Z,14.70
2019-05-03T15:04:58.219Z,6.17
2019-05-03T15:08:00.246Z,4.47
2019-05-03T15:11:02.411Z,2.93
2019-05-03T15:14:05.625Z,3.33
2019-05-03T15:17:07.956Z,4.33
2019-05-03T15:20:10.970Z,8.47
2019-05-03T15:23:14.675Z,46.60
2019-05-03T15:26:16.836Z,24.10
2019-05-03T15:29:18.871Z,36.27
2019-05-03T15:32:20.878Z,21.97
2019-05-03T15:35:23.052Z,45.23
2019-05-03T15:38:25.044Z,45.90
2019-05-03T15:41:27.033Z,33.43
2019-05-03T15:44:47.554Z,18.10
2019-05-03T15:47:51.403Z,27.67
2019-05-03T15:50:55.183Z,17.43
2019-05-03T15:53:57.281Z,11.63
2019-05-03T15:56:59.234Z,9.23
2019-05-03T16:00:03.088Z,4.77
2019-05-03T16:03:10.460Z,7.83
2019-05-03T16:06:11.284Z,3.33
2019-05-03T16:09:15.221Z,5.20
2019-05-03T16:12:18.321Z,5.10
2019-05-03T16:15:21.867Z,5.93
2019-05-03T16:18:24.603Z,7.30
2019-05-03T16:21:27.684Z,10.43
2019-05-03T16:24:35.491Z,3.30
2019-05-03T16:27:39.365Z,9.77
2019-05-03T16:30:45.415Z,6.53
2019-05-03T16:33:49.367Z,5.73
2019-05-03T16:36:54.855Z,5.10
2019-05-03T16:39:57.903Z,6.93
2019-05-03T16:42:59.939Z,4.27
2019-05-03T16:46:01.910Z,5.93
2019-05-03T16:49:04.562Z,4.40
2019-05-03T16:52:08.221Z,6.23
2019-05-03T16:55:10.209Z,9.40
2019-05-03T16:58:12.227Z,3.90
2019-05-03T17:01:17.831Z,6.00
2019-05-03T17:04:30.252Z,4.43
2019-05-03T17:07:45.417Z,4.53
2019-05-03T17:10:52.046Z,3.63
2019-05-03T17:13:57.637Z,4.53
2019-05-03T17:17:00.336Z,5.03
2019-05-03T17:20:05.611Z,4.57
2019-05-03T17:23:09.071Z,6.07
2019-05-03T17:26:11.092Z,6.43
2019-05-03T17:29:13.122Z,6.87
2019-05-03T17:32:15.398Z,5.27
2019-05-03T17:35:18.870Z,4.93
2019-05-03T17:38:20.807Z,9.47
2019-05-03T17:41:28.611Z,9.23
2019-05-03T17:44:34.523Z,5.87
2019-05-03T17:47:38.993Z,7.03
2019-05-03T17:50:40.979Z,13.40
2019-05-03T17:53:56.870Z,8.73
2019-05-03T17:57:17.725Z,10.70
2019-05-03T18:00:35.301Z,8.77
2019-05-03T18:03:39.068Z,11.57
2019-05-03T18:06:42.926Z,9.33
2019-05-03T18:09:46.716Z,8.03
2019-05-03T18:12:48.979Z,10.23
2019-05-03T18:15:54.355Z,15.07
2019-05-03T18:18:56.537Z,7.37
2019-05-03T18:21:59.893Z,8.87
2019-05-03T18:25:04.952Z,19.20
2019-05-03T18:28:07.184Z,11.40
2019-05-03T18:31:09.142Z,11.50
2019-05-03T18:34:19.176Z,12.33
2019-05-03T18:37:18.386Z,15.50
2019-05-03T18:40:20.702Z,21.90
2019-05-03T18:43:30.583Z,29.87
2019-05-03T18:46:37.899Z,31.60
2019-05-03T18:49:47.531Z,28.97
2019-05-03T18:52:51.896Z,28.17
2019-05-03T18:55:55.182Z,24.73
2019-05-03T18:58:57.681Z,29.47
2019-05-03T19:02:01.882Z,27.80
2019-05-03T19:05:06.663Z,33.80
2019-05-03T19:08:19.689Z,23.80
2019-05-03T19:11:31.131Z,20.60
2019-05-03T19:14:36.397Z,24.93
2019-05-03T19:17:41.498Z,23.03
2019-05-03T19:20:45.584Z,23.10
2019-05-03T19:23:47.524Z,18.93
2019-05-03T19:26:49.497Z,49.17
2019-05-03T19:29:55.412Z,42.03
2019-05-03T19:32:57.813Z,17.63
2019-05-03T19:36:01.172Z,11.07
2019-05-03T19:39:06.462Z,13.80
2019-05-03T19:42:15.398Z,11.70
2019-05-03T19:45:21.024Z,14.53
2019-05-03T19:48:25.929Z,11.77
2019-05-03T19:51:30.726Z,13.73
2019-05-03T19:54:36.520Z,11.57
2019-05-03T19:57:42.283Z,14.67
2019-05-03T20:00:52.439Z,20.40
2019-05-03T20:04:12.454Z,19.53
2019-05-03T20:07:22.063Z,20.10
2019-05-03T20:10:25.397Z,29.00
2019-05-03T20:13:34.602Z,19.17
2019-05-03T20:16:31.767Z,20.00
2019-05-03T20:19:34.704Z,12.07
2019-05-03T20:22:45.116Z,12.00
2019-05-03T20:25:47.159Z,11.87
2019-05-03T20:28:49.111Z,10.47
2019-05-03T20:31:51.127Z,16.33
2019-05-03T20:34:56.198Z,17.07
2019-05-03T20:38:00.076Z,10.80
2019-05-03T20:41:05.239Z,10.53
2019-05-03T20:44:11.018Z,15.97
2019-05-03T20:47:16.538Z,16.57
2019-05-03T20:50:20.561Z,17.13
2019-05-03T20:53:25.121Z,15.33
2019-05-03T20:56:28.871Z,15.60
2019-05-03T20:59:42.153Z,14.43
2019-05-03T21:02:50.518Z,15.73
2019-05-03T21:05:42.163Z,16.50
2019-05-03T21:08:52.921Z,15.23
2019-05-03T21:11:48.464Z,15.53
2019-05-03T21:14:50.419Z,19.97
2019-05-03T21:17:55.564Z,18.07
2019-05-03T21:21:09.426Z,17.77
2019-05-03T21:24:13.215Z,21.33
2019-05-03T21:27:15.332Z,16.20
2019-05-03T21:30:17.454Z,13.33
2019-05-03T21:33:19.443Z,19.17
2019-05-03T21:36:21.425Z,20.63
2019-05-03T21:39:24.643Z,17.60
2019-05-03T21:42:27.013Z,19.07
2019-05-03T21:45:37.104Z,19.30
2019-05-03T21:48:59.689Z,18.83
2019-05-03T21:52:01.640Z,20.23
2019-05-03T21:55:05.600Z,22.37
2019-05-03T21:58:07.513Z,17.03
2019-05-03T22:01:11.258Z,16.80
2019-05-03T22:04:15.420Z,19.27
2019-05-03T22:07:17.112Z,20.30
2019-05-03T22:10:19.049Z,19.40
2019-05-03T22:13:21.046Z,14.07
2019-05-03T22:16:41.406Z,15.67
2019-05-03T22:19:45.134Z,15.17
2019-05-03T22:22:48.879Z,14.43
2019-05-03T22:25:50.807Z,18.17
2019-05-03T22:28:54.712Z,16.13
2019-05-03T22:31:56.754Z,19.23
2019-05-03T22:34:58.635Z,20.67
2019-05-03T22:38:00.674Z,23.00
2019-05-03T22:41:02.736Z,27.33
2019-05-03T22:44:04.716Z,15.30
2019-05-03T22:47:07.744Z,16.50
2019-05-03T22:50:09.939Z,17.00
2019-05-03T22:53:11.875Z,18.37
2019-05-03T22:56:14.512Z,16.47
2019-05-03T22:59:16.913Z,23.27
2019-05-03T23:02:18.920Z,17.17
2019-05-03T23:05:20.833Z,12.47
2019-05-03T23:08:22.748Z,13.97
2019-05-03T23:11:24.718Z,13.00
2019-05-03T23:14:26.633Z,18.33
2019-05-03T23:17:28.537Z,16.23
2019-05-03T23:20:41.390Z,16.60
2019-05-03T23:23:51.520Z,14.63
2019-05-03T23:26:53.378Z,14.20
2019-05-03T23:29:55.434Z,12.53
2019-05-03T23:32:58.831Z,18.93
2019-05-03T23:36:00.790Z,17.17
2019-05-03T23:39:05.102Z,13.97
2019-05-03T23:42:07.472Z,15.40
2019-05-03T23:45:09.427Z,15.70
2019-05-03T23:48:11.326Z,17.73
2019-05-03T23:51:31.444Z,19.00
2019-05-03T23:54:33.360Z,13.97
2019-05-03T23:57:35.674Z,12.87
